createdAt,value
2018-12-05T00:00:32.092Z,11.87
2018-12-05T00:03:04.551Z,12.30
2018-12-05T00:05:37.001Z,11.97
2018-12-05T00:08:09.999Z,12.10
2018-12-05T00:10:42.757Z,12.27
2018-12-05T00:13:15.215Z,11.97
2018-12-05T00:15:47.644Z,12.70
2018-12-05T00:18:20.097Z,11.87
2018-12-05T00:20:52.847Z,12.13
2018-12-05T00:23:25.279Z,12.40
2018-12-05T00:25:57.693Z,11.30
2018-12-05T00:28:30.112Z,11.93
2018-12-05T00:31:02.517Z,12.27
2018-12-05T00:33:35.552Z,11.33
2018-12-05T00:36:08.305Z,12.30
2018-12-05T00:38:40.736Z,12.27
2018-12-05T00:41:13.393Z,11.87
2018-12-05T00:43:46.373Z,11.90
2018-12-05T00:46:18.795Z,12.27
2018-12-05T00:48:51.232Z,12.27
2018-12-05T00:51:23.668Z,11.87
2018-12-05T00:53:56.362Z,11.53
2018-12-05T00:56:28.768Z,12.57
2018-12-05T00:59:01.207Z,12.07
2018-12-05T01:01:33.612Z,12.27
2018-12-05T01:04:06.055Z,12.17
2018-12-05T01:06:38.716Z,12.00
2018-12-05T01:09:11.158Z,12.10
2018-12-05T01:11:43.595Z,11.43
2018-12-05T01:14:16.340Z,11.87
2018-12-05T01:16:48.751Z,12.03
2018-12-05T01:19:21.186Z,12.40
2018-12-05T01:21:53.889Z,12.57
2018-12-05T01:24:26.552Z,13.30
2018-12-05T01:26:58.959Z,13.70
2018-12-05T01:29:31.494Z,13.80
2018-12-05T01:32:03.891Z,13.70
2018-12-05T01:34:37.018Z,14.70
2018-12-05T01:37:09.444Z,15.20
2018-12-05T01:39:42.121Z,14.40
2018-12-05T01:42:14.540Z,13.93
2018-12-05T01:44:47.283Z,14.93
2018-12-05T01:47:19.724Z,15.33
2018-12-05T01:49:52.193Z,15.23
2018-12-05T01:52:24.601Z,15.23
2018-12-05T01:54:57.374Z,16.03
2018-12-05T01:57:29.800Z,15.63
2018-12-05T02:00:02.537Z,17.73
2018-12-05T02:02:34.945Z,17.70
2018-12-05T02:05:07.680Z,16.23
2018-12-05T02:07:40.119Z,16.10
2018-12-05T02:10:12.831Z,15.77
2018-12-05T02:12:45.269Z,16.43
2018-12-05T02:15:17.985Z,16.63
2018-12-05T02:17:50.409Z,16.40
2018-12-05T02:20:23.144Z,18.37
2018-12-05T02:22:55.824Z,16.10
2018-12-05T02:25:28.264Z,16.60
2018-12-05T02:28:00.663Z,17.60
2018-12-05T02:30:33.203Z,17.20
2018-12-05T02:33:05.621Z,17.07
2018-12-05T02:35:38.049Z,16.90
2018-12-05T02:38:10.448Z,17.43
2018-12-05T02:40:42.882Z,17.70
2018-12-05T02:43:15.584Z,17.27
2018-12-05T02:45:48.030Z,18.30
2018-12-05T02:48:20.737Z,18.60
2018-12-05T02:50:53.756Z,18.20
2018-12-05T02:53:26.190Z,18.20
2018-12-05T02:55:58.887Z,17.60
2018-12-05T02:58:31.583Z,18.00
2018-12-05T03:01:04.368Z,18.53
2018-12-05T03:03:36.775Z,19.27
2018-12-05T03:06:09.216Z,19.77
2018-12-05T03:08:41.622Z,19.23
2018-12-05T03:11:14.312Z,19.00
2018-12-05T03:13:46.734Z,19.60
2018-12-05T03:16:19.508Z,17.67
2018-12-05T03:18:52.161Z,19.07
2018-12-05T03:21:24.590Z,18.90
2018-12-05T03:23:57.000Z,18.30
2018-12-05T03:26:29.700Z,18.53
2018-12-05T03:29:02.132Z,16.43
2018-12-05T03:31:34.584Z,20.13
2018-12-05T03:34:06.992Z,18.87
2018-12-05T03:36:39.457Z,18.70
2018-12-05T03:39:11.866Z,17.73
2018-12-05T03:41:44.318Z,19.97
2018-12-05T03:44:17.003Z,19.10
2018-12-05T03:46:49.432Z,18.40
2018-12-05T03:49:22.147Z,19.20
2018-12-05T03:51:54.628Z,19.40
2018-12-05T03:54:27.068Z,19.13
2018-12-05T03:56:59.544Z,17.53
2018-12-05T03:59:31.956Z,17.50
2018-12-05T04:02:04.390Z,17.53
2018-12-05T04:04:36.814Z,18.00
2018-12-05T04:07:09.259Z,16.77
2018-12-05T04:09:41.676Z,16.57
2018-12-05T04:12:14.127Z,17.23
2018-12-05T04:14:46.540Z,19.90
2018-12-05T04:17:18.964Z,18.53
2018-12-05T04:19:51.393Z,19.50
2018-12-05T04:22:23.848Z,18.30
2018-12-05T04:24:56.287Z,18.20
2018-12-05T04:27:28.745Z,19.33
2018-12-05T04:30:01.193Z,18.17
2018-12-05T04:32:33.630Z,18.03
2018-12-05T04:35:06.152Z,18.63
2018-12-05T04:37:38.605Z,19.93
2018-12-05T04:40:11.012Z,18.57
2018-12-05T04:42:43.439Z,19.23
2018-12-05T04:45:16.476Z,18.67
2018-12-05T04:47:49.011Z,17.93
2018-12-05T04:50:21.421Z,15.57
2018-12-05T04:52:54.142Z,16.63
2018-12-05T04:55:26.820Z,16.33
2018-12-05T04:57:59.500Z,15.67
2018-12-05T05:00:31.923Z,15.17
2018-12-05T05:03:04.909Z,15.43
2018-12-05T05:05:37.344Z,16.27
2018-12-05T05:08:09.797Z,15.17
2018-12-05T05:10:42.219Z,14.63
2018-12-05T05:13:14.660Z,15.40
2018-12-05T05:15:47.090Z,14.43
2018-12-05T05:18:19.793Z,14.50
2018-12-05T05:20:52.208Z,14.50
2018-12-05T05:23:24.632Z,14.77
2018-12-05T05:25:57.033Z,14.47
2018-12-05T05:28:29.493Z,14.63
2018-12-05T05:31:01.897Z,14.10
2018-12-05T05:33:34.391Z,14.60
2018-12-05T05:36:07.089Z,14.43
2018-12-05T05:38:39.800Z,13.57
2018-12-05T05:41:12.223Z,13.53
2018-12-05T05:43:44.661Z,13.97
2018-12-05T05:46:17.385Z,13.10
2018-12-05T05:48:49.838Z,14.53
2018-12-05T05:51:22.248Z,13.90
2018-12-05T05:53:54.736Z,12.87
2018-12-05T05:56:27.380Z,13.50
2018-12-05T05:59:00.379Z,12.83
2018-12-05T06:01:32.805Z,12.37
2018-12-05T06:04:05.271Z,13.17
2018-12-05T06:06:37.934Z,12.60
2018-12-05T06:09:10.612Z,12.60
2018-12-05T06:11:43.289Z,13.10
2018-12-05T06:14:15.742Z,14.40
2018-12-05T06:16:48.136Z,13.67
2018-12-05T06:19:20.823Z,12.60
2018-12-05T06:21:53.225Z,14.03
2018-12-05T06:24:25.688Z,13.63
2018-12-05T06:26:58.100Z,14.23
2018-12-05T06:29:30.786Z,12.80
2018-12-05T06:32:03.563Z,12.80
2018-12-05T06:34:36.267Z,12.20
2018-12-05T06:37:08.956Z,12.80
2018-12-05T06:39:41.408Z,11.27
2018-12-05T06:42:14.072Z,12.00
2018-12-05T06:44:46.508Z,12.70
2018-12-05T06:47:19.255Z,12.20
2018-12-05T06:49:51.693Z,11.60
2018-12-05T06:52:24.377Z,11.50
2018-12-05T06:54:57.297Z,12.23
2018-12-05T06:57:29.735Z,11.40
2018-12-05T07:00:02.443Z,10.97
2018-12-05T07:02:34.857Z,12.00
2018-12-05T07:05:07.304Z,11.77
2018-12-05T07:07:39.747Z,12.03
2018-12-05T07:10:12.189Z,11.57
2018-12-05T07:12:44.616Z,10.47
2018-12-05T07:15:17.076Z,10.40
2018-12-05T07:17:49.728Z,11.83
2018-12-05T07:20:22.168Z,11.93
2018-12-05T07:22:54.600Z,11.57
2018-12-05T07:25:27.023Z,11.87
2018-12-05T07:27:59.968Z,11.50
2018-12-05T07:30:32.621Z,11.33
2018-12-05T07:33:05.380Z,11.13
2018-12-05T07:35:37.842Z,10.83
2018-12-05T07:38:10.785Z,11.30
2018-12-05T07:40:43.204Z,12.10
2018-12-05T07:43:15.624Z,11.60
2018-12-05T07:45:48.281Z,10.90
2018-12-05T07:48:20.693Z,10.13
2018-12-05T07:50:53.100Z,9.93
2018-12-05T07:53:25.520Z,10.47
2018-12-05T07:55:57.960Z,10.33
2018-12-05T07:58:30.677Z,10.20
2018-12-05T08:01:03.380Z,10.70
2018-12-05T08:03:35.791Z,9.63
2018-12-05T08:06:08.503Z,9.63
2018-12-05T08:08:40.915Z,10.03
2018-12-05T08:11:13.384Z,11.03
2018-12-05T08:13:45.802Z,8.70
2018-12-05T08:16:18.482Z,9.67
2018-12-05T08:18:51.179Z,10.00
2018-12-05T08:21:23.604Z,9.20
2018-12-05T08:23:56.336Z,9.33
2018-12-05T08:26:28.775Z,9.23
2018-12-05T08:29:01.176Z,8.40
2018-12-05T08:31:33.654Z,8.90
2018-12-05T08:34:06.122Z,8.90
2018-12-05T08:36:38.528Z,9.50
2018-12-05T08:39:10.947Z,8.67
2018-12-05T08:41:43.377Z,8.90
2018-12-05T08:44:15.795Z,9.20
2018-12-05T08:46:48.299Z,9.40
2018-12-05T08:49:20.738Z,9.43
2018-12-05T08:51:53.152Z,9.37
2018-12-05T08:54:25.816Z,9.43
2018-12-05T08:56:58.251Z,9.20
2018-12-05T08:59:30.901Z,9.00
2018-12-05T09:02:03.325Z,9.60
2018-12-05T09:04:35.737Z,8.80
2018-12-05T09:07:08.168Z,9.27
2018-12-05T09:09:40.574Z,8.90
2018-12-05T09:12:13.358Z,9.50
2018-12-05T09:14:45.765Z,9.13
2018-12-05T09:17:18.188Z,9.60
2018-12-05T09:19:50.865Z,9.37
2018-12-05T09:22:23.291Z,9.63
2018-12-05T09:24:55.709Z,9.47
2018-12-05T09:27:28.141Z,9.33
2018-12-05T09:30:00.549Z,9.47
2018-12-05T09:32:32.976Z,10.23
2018-12-05T09:35:05.916Z,9.63
2018-12-05T09:37:38.571Z,9.07
2018-12-05T09:40:11.001Z,10.50
2018-12-05T09:42:43.754Z,9.50
2018-12-05T09:45:16.496Z,10.50
2018-12-05T09:47:48.924Z,9.93
2018-12-05T09:50:21.577Z,9.73
2018-12-05T09:52:53.996Z,10.60
2018-12-05T09:55:26.548Z,10.40
2018-12-05T09:57:59.285Z,10.93
2018-12-05T10:00:31.947Z,10.33
2018-12-05T10:03:04.393Z,10.33
2018-12-05T10:05:37.037Z,10.00
2018-12-05T10:08:09.693Z,10.47
2018-12-05T10:10:42.362Z,9.93
2018-12-05T10:13:14.792Z,11.10
2018-12-05T10:15:47.212Z,10.97
2018-12-05T10:18:19.732Z,10.27
2018-12-05T10:20:55.895Z,10.73
2018-12-05T10:23:26.549Z,11.60
2018-12-05T10:25:58.956Z,10.80
2018-12-05T10:28:31.860Z,11.17
2018-12-05T10:31:04.535Z,11.40
2018-12-05T10:33:37.201Z,10.33
2018-12-05T10:36:09.861Z,9.93
2018-12-05T10:38:42.281Z,11.07
2018-12-05T10:41:14.768Z,12.17
2018-12-05T10:43:47.184Z,11.40
2018-12-05T10:46:19.586Z,11.53
2018-12-05T10:48:51.992Z,11.47
2018-12-05T10:51:24.392Z,11.90
2018-12-05T10:53:57.421Z,10.90
2018-12-05T10:56:30.068Z,10.90
2018-12-05T10:59:02.495Z,11.70
2018-12-05T11:01:35.336Z,10.40
2018-12-05T11:04:07.736Z,12.00
2018-12-05T11:06:40.138Z,11.37
2018-12-05T11:09:12.560Z,11.70
2018-12-05T11:11:44.990Z,11.30
2018-12-05T11:14:17.397Z,11.00
2018-12-05T11:16:49.793Z,11.47
2018-12-05T11:19:22.533Z,11.17
2018-12-05T11:21:54.939Z,11.63
2018-12-05T11:24:27.362Z,10.70
2018-12-05T11:26:59.801Z,12.27
2018-12-05T11:29:32.279Z,11.10
2018-12-05T11:32:04.708Z,11.07
2018-12-05T11:34:37.141Z,10.13
2018-12-05T11:37:09.671Z,12.83
2018-12-05T11:39:42.073Z,12.17
2018-12-05T11:42:14.792Z,11.27
2018-12-05T11:44:47.215Z,11.60
2018-12-05T11:47:19.620Z,10.67
2018-12-05T11:49:52.111Z,12.87
2018-12-05T11:52:24.511Z,11.20
2018-12-05T11:54:57.057Z,11.97
2018-12-05T11:57:29.776Z,10.90
2018-12-05T12:00:02.561Z,10.93
2018-12-05T12:02:35.310Z,10.30
2018-12-05T12:05:07.713Z,11.33
2018-12-05T12:07:40.697Z,10.40
2018-12-05T12:10:13.200Z,10.87
2018-12-05T12:12:45.621Z,10.13
2018-12-05T12:15:18.652Z,11.93
2018-12-05T12:17:51.314Z,11.07
2018-12-05T12:20:24.061Z,11.00
2018-12-05T12:22:56.507Z,11.37
2018-12-05T12:25:29.233Z,11.70
2018-12-05T12:28:01.680Z,11.33
2018-12-05T12:30:34.113Z,11.07
2018-12-05T12:33:06.530Z,11.00
2018-12-05T12:35:38.977Z,11.13
2018-12-05T12:38:11.422Z,10.60
2018-12-05T12:40:44.164Z,10.63
2018-12-05T12:43:16.868Z,11.70
2018-12-05T12:45:49.291Z,10.83
2018-12-05T12:48:22.006Z,10.83
2018-12-05T12:50:54.441Z,11.60
2018-12-05T12:53:27.208Z,11.27
2018-12-05T12:56:00.157Z,11.87
2018-12-05T12:58:32.587Z,11.47
2018-12-05T13:01:05.000Z,11.17
2018-12-05T13:03:37.660Z,11.10
2018-12-05T13:06:10.071Z,11.90
2018-12-05T13:08:42.503Z,10.33
2018-12-05T13:11:14.941Z,11.33
2018-12-05T13:13:47.378Z,10.10
2018-12-05T13:16:19.796Z,11.43
2018-12-05T13:18:52.238Z,11.13
2018-12-05T13:21:24.664Z,10.70
2018-12-05T13:23:57.323Z,12.20
2018-12-05T13:26:29.751Z,11.93
2018-12-05T13:29:02.863Z,12.07
2018-12-05T13:31:35.283Z,11.27
2018-12-05T13:34:07.976Z,11.83
2018-12-05T13:36:40.380Z,11.70
2018-12-05T13:39:12.816Z,11.53
2018-12-05T13:41:45.267Z,11.53
2018-12-05T13:44:17.697Z,11.93
2018-12-05T13:46:50.421Z,11.53
2018-12-05T13:49:23.145Z,11.37
2018-12-05T13:51:55.573Z,11.63
2018-12-05T13:54:28.006Z,11.17
2018-12-05T13:57:00.727Z,10.70
2018-12-05T13:59:33.157Z,12.00
2018-12-05T14:02:07.661Z,11.70
2018-12-05T14:04:40.533Z,11.67
2018-12-05T14:07:12.961Z,12.37
2018-12-05T14:09:45.653Z,11.43
2018-12-05T14:12:18.072Z,12.00
2018-12-05T14:14:50.507Z,12.13
2018-12-05T14:17:23.121Z,13.07
2018-12-05T14:19:55.575Z,12.13
2018-12-05T14:22:27.968Z,11.63
2018-12-05T14:25:00.407Z,13.00
2018-12-05T14:27:32.825Z,11.80
2018-12-05T14:30:06.172Z,12.00
2018-12-05T14:32:38.802Z,12.17
2018-12-05T14:35:11.238Z,11.83
2018-12-05T14:37:43.664Z,12.20
2018-12-05T14:40:16.397Z,12.03
2018-12-05T14:42:48.816Z,12.73
2018-12-05T14:45:21.267Z,12.60
2018-12-05T14:47:53.689Z,12.77
2018-12-05T14:50:26.123Z,12.27
2018-12-05T14:52:58.878Z,12.20
2018-12-05T14:55:31.329Z,12.23
2018-12-05T14:58:03.753Z,12.23
2018-12-05T15:00:36.188Z,12.03
2018-12-05T15:03:08.605Z,12.40
2018-12-05T15:05:41.025Z,12.23
2018-12-05T15:08:13.439Z,11.40
2018-12-05T15:10:45.909Z,12.37
2018-12-05T15:13:18.361Z,11.63
2018-12-05T15:15:50.802Z,12.77
2018-12-05T15:18:23.216Z,11.40
2018-12-05T15:20:55.633Z,12.53
2018-12-05T15:23:28.056Z,11.77
2018-12-05T15:26:00.931Z,12.63
2018-12-05T15:28:33.327Z,12.97
2018-12-05T15:31:06.372Z,13.03
2018-12-05T15:33:38.801Z,12.40
2018-12-05T15:36:11.225Z,12.30
2018-12-05T15:38:44.488Z,12.87
2018-12-05T15:41:16.923Z,11.97
2018-12-05T15:43:49.372Z,12.40
2018-12-05T15:46:21.816Z,12.47
2018-12-05T15:48:54.515Z,12.93
2018-12-05T15:51:27.207Z,13.40
2018-12-05T15:53:59.640Z,13.20
2018-12-05T15:56:33.150Z,13.30
2018-12-05T15:59:05.571Z,12.97
2018-12-05T16:01:37.991Z,14.17
2018-12-05T16:04:10.608Z,13.73
2018-12-05T16:06:43.074Z,14.03
2018-12-05T16:09:15.812Z,13.50
2018-12-05T16:11:48.258Z,13.43
2018-12-05T16:14:20.919Z,13.93
2018-12-05T16:16:53.341Z,13.20
2018-12-05T16:19:25.805Z,13.30
2018-12-05T16:21:58.211Z,14.00
2018-12-05T16:24:30.654Z,13.33
2018-12-05T16:27:03.353Z,12.90
2018-12-05T16:29:35.764Z,13.20
2018-12-05T16:32:08.208Z,14.47
2018-12-05T16:34:40.896Z,13.57
2018-12-05T16:37:13.586Z,13.60
2018-12-05T16:39:45.995Z,13.50
2018-12-05T16:42:18.422Z,13.83
2018-12-05T16:44:51.075Z,13.67
2018-12-05T16:47:23.788Z,14.17
2018-12-05T16:49:56.231Z,14.77
2018-12-05T16:52:28.921Z,13.67
2018-12-05T16:55:01.341Z,14.40
2018-12-05T16:57:34.088Z,14.77
2018-12-05T17:00:08.267Z,15.10
2018-12-05T17:02:40.679Z,14.57
2018-12-05T17:05:13.103Z,13.97
2018-12-05T17:07:45.536Z,14.17
2018-12-05T17:10:18.204Z,15.77
2018-12-05T17:12:50.961Z,14.30
2018-12-05T17:15:23.396Z,13.47
2018-12-05T17:17:56.112Z,15.00
2018-12-05T17:20:28.818Z,14.70
2018-12-05T17:23:01.248Z,13.93
2018-12-05T17:25:33.688Z,15.10
2018-12-05T17:28:06.408Z,14.13
2018-12-05T17:30:39.163Z,15.07
2018-12-05T17:33:11.573Z,15.00
2018-12-05T17:35:44.285Z,14.77
2018-12-05T17:38:16.871Z,14.43
2018-12-05T17:40:49.313Z,15.87
2018-12-05T17:43:21.812Z,13.57
2018-12-05T17:45:54.261Z,15.70
2018-12-05T17:48:27.054Z,14.73
2018-12-05T17:50:59.496Z,15.20
2018-12-05T17:53:31.900Z,15.20
2018-12-05T17:56:04.580Z,14.67
2018-12-05T17:58:37.004Z,14.47
2018-12-05T18:01:09.437Z,14.67
2018-12-05T18:03:41.860Z,14.40
2018-12-05T18:06:14.512Z,15.07
2018-12-05T18:08:47.157Z,14.63
2018-12-05T18:11:19.903Z,14.53
2018-12-05T18:13:52.322Z,14.37
2018-12-05T18:16:24.838Z,14.93
2018-12-05T18:18:57.318Z,14.23
2018-12-05T18:21:30.279Z,14.50
2018-12-05T18:24:02.722Z,13.83
2018-12-05T18:26:35.848Z,14.07
2018-12-05T18:29:08.657Z,13.40
2018-12-05T18:31:41.411Z,13.77
2018-12-05T18:34:14.132Z,14.33
2018-12-05T18:36:46.923Z,13.20
2018-12-05T18:39:19.620Z,13.37
2018-12-05T18:41:52.414Z,14.77
2018-12-05T18:44:25.162Z,13.13
2018-12-05T18:46:57.940Z,13.60
2018-12-05T18:49:30.717Z,13.07
2018-12-05T18:52:03.507Z,13.17
2018-12-05T18:54:36.241Z,13.17
2018-12-05T18:57:09.460Z,14.30
2018-12-05T18:59:42.580Z,13.70
2018-12-05T19:02:15.449Z,12.60
2018-12-05T19:04:48.221Z,13.93
2018-12-05T19:07:21.003Z,12.70
2018-12-05T19:09:53.775Z,14.30
2018-12-05T19:12:26.580Z,13.93
2018-12-05T19:14:59.319Z,12.87
2018-12-05T19:17:32.093Z,12.33
2018-12-05T19:20:05.569Z,12.70
2018-12-05T19:22:38.397Z,12.23
2018-12-05T19:25:10.805Z,13.20
2018-12-05T19:27:43.570Z,11.93
2018-12-05T19:30:16.459Z,12.93
2018-12-05T19:32:48.918Z,12.47
2018-12-05T19:35:21.721Z,12.67
2018-12-05T19:37:54.128Z,11.90
2018-12-05T19:40:26.548Z,13.33
2018-12-05T19:42:59.221Z,13.23
2018-12-05T19:45:31.920Z,11.97
2018-12-05T19:48:04.695Z,13.03
2018-12-05T19:50:37.104Z,12.73
2018-12-05T19:53:09.542Z,12.23
2018-12-05T19:55:41.943Z,13.57
2018-12-05T19:58:14.704Z,13.17
2018-12-05T20:00:47.464Z,13.23
2018-12-05T20:03:20.460Z,13.13
2018-12-05T20:05:52.908Z,12.80
2018-12-05T20:08:25.324Z,13.17
2018-12-05T20:10:57.856Z,13.10
2018-12-05T20:13:30.560Z,14.37
2018-12-05T20:16:03.013Z,13.07
2018-12-05T20:18:35.812Z,13.50
2018-12-05T20:21:08.236Z,13.30
2018-12-05T20:23:41.284Z,14.20
2018-12-05T20:26:14.036Z,17.23
2018-12-05T20:28:46.469Z,14.60
2018-12-05T20:31:19.134Z,12.87
2018-12-05T20:33:51.929Z,12.90
2018-12-05T20:36:24.380Z,12.60
2018-12-05T20:38:57.157Z,13.00
2018-12-05T20:41:33.191Z,12.93
2018-12-05T20:44:04.578Z,13.57
2018-12-05T20:46:37.236Z,12.93
2018-12-05T20:49:09.677Z,13.60
2018-12-05T20:51:42.111Z,14.07
2018-12-05T20:54:14.849Z,13.63
2018-12-05T20:56:47.533Z,12.90
2018-12-05T20:59:19.938Z,13.17
2018-12-05T21:01:52.634Z,14.00
2018-12-05T21:04:25.300Z,13.80
2018-12-05T21:06:58.042Z,12.17
